createdAt,value
2023-02-19T00:02:02.141Z,91.38
2023-02-19T00:04:30.877Z,91.58
2023-02-19T00:06:59.323Z,92.04
2023-02-19T00:09:27.909Z,92.07
2023-02-19T00:11:56.411Z,91.82
2023-02-19T00:14:24.923Z,91.83
2023-02-19T00:16:53.371Z,91.92
2023-02-19T00:19:23.476Z,91.88
2023-02-19T00:21:53.900Z,92.06
2023-02-19T00:24:23.199Z,92.08
2023-02-19T00:26:51.929Z,91.88
2023-02-19T00:29:22.699Z,91.92
2023-02-19T00:31:52.125Z,92.51
2023-02-19T00:34:22.054Z,92.70
2023-02-19T00:36:50.566Z,92.46
2023-02-19T00:39:21.521Z,92.31
2023-02-19T00:41:50.211Z,92.63
2023-02-19T00:44:19.019Z,92.50
2023-02-19T00:46:49.905Z,92.16
2023-02-19T00:49:23.529Z,92.48
2023-02-19T00:51:53.895Z,92.90
2023-02-19T00:54:23.639Z,92.49
2023-02-19T00:56:52.738Z,92.75
2023-02-19T00:59:21.239Z,92.90
2023-02-19T01:01:50.665Z,92.76
2023-02-19T01:04:19.627Z,92.77
2023-02-19T01:06:49.832Z,92.52
2023-02-19T01:09:18.413Z,92.86
2023-02-19T01:11:47.263Z,93.08
2023-02-19T01:14:15.890Z,93.05
2023-02-19T01:16:44.548Z,93.02
2023-02-19T01:19:13.731Z,93.57
2023-02-19T01:21:42.814Z,93.00
2023-02-19T01:24:13.800Z,93.24
2023-02-19T01:26:42.382Z,93.16
2023-02-19T01:29:11.214Z,92.75
2023-02-19T01:31:42.231Z,93.11
2023-02-19T01:34:13.324Z,93.48
2023-02-19T01:36:42.340Z,93.49
2023-02-19T01:39:13.305Z,93.33
2023-02-19T01:41:43.297Z,93.41
2023-02-19T01:45:15.076Z,93.68
2023-02-19T01:47:43.555Z,93.32
2023-02-19T01:50:12.236Z,93.53
2023-02-19T01:52:40.709Z,93.59
2023-02-19T01:55:13.925Z,94.21
2023-02-19T01:57:48.163Z,93.97
2023-02-19T02:00:19.885Z,94.53
2023-02-19T02:02:53.557Z,94.03
2023-02-19T02:05:36.597Z,93.83
2023-02-19T02:08:23.655Z,94.13
2023-02-19T02:10:54.315Z,95.25
2023-02-19T02:13:23.121Z,95.15
2023-02-19T02:16:05.567Z,95.03
2023-02-19T02:18:47.679Z,95.54
2023-02-19T02:21:37.972Z,95.58
2023-02-19T02:24:29.171Z,95.81
2023-02-19T02:27:20.093Z,95.94
2023-02-19T02:30:18.747Z,96.27
2023-02-19T02:32:56.318Z,96.66
2023-02-19T02:35:28.823Z,97.03
2023-02-19T02:38:02.375Z,97.25
2023-02-19T02:40:32.593Z,97.07
2023-02-19T02:43:03.141Z,97.43
2023-02-19T02:45:38.479Z,97.57
2023-02-19T02:48:34.465Z,97.94
2023-02-19T02:51:14.886Z,98.14
2023-02-19T02:54:12.147Z,98.38
2023-02-19T02:56:42.397Z,98.29
2023-02-19T02:59:15.099Z,98.45
2023-02-19T03:02:07.767Z,99.06
2023-02-19T03:05:01.614Z,98.91
2023-02-19T03:07:38.870Z,98.90
2023-02-19T03:10:13.295Z,98.79
2023-02-19T03:13:00.879Z,98.44
2023-02-19T03:15:54.521Z,98.53
2023-02-19T03:18:51.149Z,98.33
2023-02-19T03:21:23.630Z,98.09
2023-02-19T03:24:10.113Z,97.87
2023-02-19T03:26:40.726Z,97.63
2023-02-19T03:29:27.132Z,97.80
2023-02-19T03:32:12.953Z,98.01
2023-02-19T03:34:48.659Z,98.08
2023-02-19T03:37:25.215Z,98.47
2023-02-19T03:39:56.314Z,98.47
2023-02-19T03:42:38.263Z,98.53
2023-02-19T03:45:31.697Z,98.85
2023-02-19T03:48:19.387Z,98.93
2023-02-19T03:50:56.193Z,99.26
2023-02-19T03:53:35.926Z,99.41
2023-02-19T03:56:11.204Z,99.52
2023-02-19T03:58:52.715Z,99.55
2023-02-19T04:01:28.641Z,99.70
2023-02-19T04:04:02.757Z,99.97
2023-02-19T04:06:36.326Z,99.52
2023-02-19T04:09:08.814Z,100.00
2023-02-19T04:11:38.825Z,99.90
2023-02-19T04:14:14.367Z,99.73
2023-02-19T04:16:47.056Z,99.84
2023-02-19T04:19:20.219Z,99.91
2023-02-19T04:21:52.257Z,100.00
2023-02-19T04:24:26.539Z,100.00
2023-02-19T04:26:56.400Z,99.45
2023-02-19T04:29:24.802Z,99.39
2023-02-19T04:31:53.402Z,99.65
2023-02-19T04:34:21.840Z,98.94
2023-02-19T04:36:51.626Z,98.70
2023-02-19T04:39:20.139Z,98.55
2023-02-19T04:41:48.602Z,98.32
2023-02-19T04:44:17.060Z,97.82
2023-02-19T04:46:45.468Z,97.50
2023-02-19T04:49:13.981Z,97.41
2023-02-19T04:51:42.543Z,96.94
2023-02-19T04:54:12.568Z,96.47
2023-02-19T04:56:41.555Z,96.43
2023-02-19T04:59:10.024Z,96.04
2023-02-19T05:01:38.453Z,95.68
2023-02-19T05:04:07.126Z,95.51
2023-02-19T05:06:35.538Z,95.56
2023-02-19T05:09:04.217Z,95.17
2023-02-19T05:11:33.964Z,95.04
2023-02-19T05:14:02.374Z,95.00
2023-02-19T05:16:30.870Z,94.95
2023-02-19T05:18:59.209Z,94.74
2023-02-19T05:21:27.650Z,94.85
2023-02-19T05:23:56.127Z,94.67
2023-02-19T05:26:25.438Z,94.75
2023-02-19T05:28:55.558Z,94.58
2023-02-19T05:31:24.766Z,94.63
2023-02-19T05:33:53.294Z,94.75
2023-02-19T05:36:23.450Z,94.85
2023-02-19T05:38:55.258Z,94.99
2023-02-19T05:41:26.024Z,94.94
2023-02-19T05:43:56.658Z,94.86
2023-02-19T05:46:27.673Z,95.06
2023-02-19T05:48:56.327Z,95.12
2023-02-19T05:51:27.107Z,95.14
2023-02-19T05:53:57.248Z,94.90
2023-02-19T05:56:34.116Z,94.47
2023-02-19T05:59:07.970Z,94.23
2023-02-19T06:01:37.001Z,93.78
2023-02-19T06:04:05.900Z,93.89
2023-02-19T06:06:34.666Z,93.10
2023-02-19T06:09:03.123Z,93.32
2023-02-19T06:11:32.388Z,92.99
2023-02-19T06:14:01.153Z,93.18
2023-02-19T06:16:32.286Z,93.21
2023-02-19T06:19:00.904Z,93.15
2023-02-19T06:21:29.381Z,93.18
2023-02-19T06:23:57.893Z,93.14
2023-02-19T06:26:27.174Z,92.96
2023-02-19T06:28:55.714Z,92.71
2023-02-19T06:31:24.836Z,93.04
2023-02-19T06:33:55.105Z,92.81
2023-02-19T06:36:24.596Z,92.62
2023-02-19T06:38:53.375Z,92.26
2023-02-19T06:41:21.757Z,92.08
2023-02-19T06:43:50.209Z,92.13
2023-02-19T06:46:18.769Z,91.85
2023-02-19T06:48:47.487Z,91.97
2023-02-19T06:51:22.746Z,92.46
2023-02-19T06:53:51.329Z,91.82
2023-02-19T06:56:29.118Z,91.61
2023-02-19T06:58:59.829Z,91.06
2023-02-19T07:01:29.354Z,90.91
2023-02-19T07:03:58.143Z,91.24
2023-02-19T07:06:29.409Z,91.35
2023-02-19T07:08:59.392Z,91.74
2023-02-19T07:11:30.901Z,91.96
2023-02-19T07:14:01.329Z,91.82
2023-02-19T07:16:30.565Z,91.15
2023-02-19T07:19:00.206Z,91.03
2023-02-19T07:21:30.834Z,91.20
2023-02-19T07:23:59.837Z,92.36
2023-02-19T07:26:28.293Z,92.86
2023-02-19T07:28:56.713Z,93.50
2023-02-19T07:31:26.199Z,94.39
2023-02-19T07:33:55.203Z,94.78
2023-02-19T07:36:26.018Z,95.47
2023-02-19T07:39:00.966Z,95.51
2023-02-19T07:41:29.774Z,95.74
2023-02-19T07:44:00.200Z,95.45
2023-02-19T07:46:30.060Z,95.18
2023-02-19T07:48:58.454Z,95.58
2023-02-19T07:51:27.034Z,95.10
2023-02-19T07:53:55.511Z,94.96
2023-02-19T07:56:25.378Z,95.88
2023-02-19T07:58:53.815Z,96.54
2023-02-19T08:01:45.205Z,97.61
2023-02-19T08:04:15.186Z,96.93
2023-02-19T08:06:44.102Z,96.42
2023-02-19T08:09:13.300Z,94.91
2023-02-19T08:12:00.783Z,95.96
2023-02-19T08:14:29.835Z,95.60
2023-02-19T08:16:58.471Z,94.68
2023-02-19T08:19:27.253Z,94.04
2023-02-19T08:21:55.805Z,93.80
2023-02-19T08:24:24.249Z,94.03
2023-02-19T08:26:54.011Z,94.74
2023-02-19T08:29:22.449Z,95.76
2023-02-19T08:31:50.977Z,96.68
2023-02-19T08:34:19.422Z,96.09
2023-02-19T08:36:47.942Z,97.32
2023-02-19T08:39:16.478Z,98.49
2023-02-19T08:41:44.929Z,97.83
2023-02-19T08:44:14.728Z,98.59
2023-02-19T08:46:43.113Z,98.16
2023-02-19T08:49:11.601Z,98.17
2023-02-19T08:51:40.009Z,96.80
2023-02-19T08:54:08.490Z,96.18
2023-02-19T08:56:36.956Z,96.51
2023-02-19T08:59:05.862Z,95.04
2023-02-19T09:01:35.834Z,95.21
2023-02-19T09:04:04.325Z,94.92
2023-02-19T09:06:32.946Z,94.34
2023-02-19T09:09:01.432Z,93.16
2023-02-19T09:11:29.855Z,92.74
2023-02-19T09:13:58.791Z,92.24
2023-02-19T09:16:27.262Z,91.90
2023-02-19T09:18:57.062Z,91.39
2023-02-19T09:21:25.558Z,90.64
2023-02-19T09:23:54.165Z,91.30
2023-02-19T09:26:22.677Z,91.35
2023-02-19T09:28:51.117Z,91.28
2023-02-19T09:31:19.671Z,91.44
2023-02-19T09:33:49.666Z,90.10
2023-02-19T09:36:19.755Z,90.56
2023-02-19T09:38:48.274Z,90.73
2023-02-19T09:41:25.108Z,90.76
2023-02-19T09:43:53.757Z,90.75
2023-02-19T09:46:32.050Z,90.24
2023-02-19T09:49:07.270Z,91.03
2023-02-19T09:51:39.715Z,90.96
2023-02-19T09:54:14.891Z,92.16
2023-02-19T09:56:43.395Z,91.64
2023-02-19T09:59:22.462Z,90.62
2023-02-19T10:01:58.948Z,90.76
2023-02-19T10:04:28.247Z,91.31
2023-02-19T10:07:03.460Z,91.67
2023-02-19T10:09:32.666Z,91.55
2023-02-19T10:12:01.188Z,92.90
2023-02-19T10:14:37.977Z,94.03
2023-02-19T10:17:07.929Z,96.51
2023-02-19T10:19:37.481Z,96.03
2023-02-19T10:22:11.673Z,96.38
2023-02-19T10:24:43.180Z,97.13
2023-02-19T10:27:14.573Z,97.12
2023-02-19T10:29:45.400Z,97.24
2023-02-19T10:32:18.777Z,98.78
2023-02-19T10:34:47.191Z,99.30
2023-02-19T10:37:19.387Z,99.38
2023-02-19T10:39:50.992Z,98.37
2023-02-19T10:42:23.054Z,100.00
2023-02-19T10:44:58.565Z,100.00
2023-02-19T10:47:29.922Z,99.01
2023-02-19T10:50:03.303Z,98.82
2023-02-19T10:52:36.998Z,99.02
2023-02-19T10:55:33.235Z,99.64
2023-02-19T10:58:26.419Z,99.86
2023-02-19T11:01:28.008Z,98.14
2023-02-19T11:04:17.266Z,97.65
2023-02-19T11:06:47.163Z,97.53
2023-02-19T11:09:28.232Z,96.37
2023-02-19T11:11:58.595Z,96.25
2023-02-19T11:14:28.895Z,95.58
2023-02-19T11:16:59.563Z,95.85
2023-02-19T11:19:37.606Z,95.06
2023-02-19T11:22:22.103Z,93.54
2023-02-19T11:24:57.322Z,94.22
2023-02-19T11:27:27.360Z,93.72
2023-02-19T11:29:56.087Z,92.35
2023-02-19T11:32:32.480Z,92.09
2023-02-19T11:35:19.584Z,91.58
2023-02-19T11:37:57.765Z,90.07
2023-02-19T11:40:40.606Z,89.51
2023-02-19T11:43:26.185Z,89.61
2023-02-19T11:46:03.248Z,89.85
2023-02-19T11:48:53.855Z,89.58
2023-02-19T11:52:03.227Z,90.05
2023-02-19T11:54:51.124Z,90.16
2023-02-19T11:57:36.725Z,89.02
2023-02-19T12:00:23.138Z,88.94
2023-02-19T12:03:23.590Z,86.96
2023-02-19T12:06:14.678Z,86.59
2023-02-19T12:09:20.172Z,85.94
2023-02-19T12:12:21.023Z,85.28
2023-02-19T12:15:25.639Z,83.02
2023-02-19T12:18:35.653Z,82.69
2023-02-19T12:21:19.588Z,82.87
2023-02-19T12:24:39.468Z,82.08
2023-02-19T12:27:22.214Z,81.17
2023-02-19T12:30:14.932Z,81.77
2023-02-19T12:33:05.731Z,81.74
2023-02-19T12:35:56.884Z,82.14
2023-02-19T12:38:35.179Z,82.09
2023-02-19T12:41:22.219Z,81.75
2023-02-19T12:43:57.234Z,81.34
2023-02-19T12:46:33.235Z,82.10
2023-02-19T12:49:11.040Z,82.47
2023-02-19T12:51:45.834Z,83.74
2023-02-19T12:54:21.124Z,83.18
2023-02-19T12:56:54.997Z,83.72
2023-02-19T12:59:31.276Z,81.91
2023-02-19T13:02:11.139Z,82.21
2023-02-19T13:04:49.104Z,80.90
2023-02-19T13:07:23.842Z,80.12
2023-02-19T13:09:57.187Z,80.03
2023-02-19T13:12:30.903Z,78.58
2023-02-19T13:15:02.502Z,78.47
2023-02-19T13:17:42.404Z,78.05
2023-02-19T13:20:21.699Z,79.31
2023-02-19T13:23:19.903Z,78.94
2023-02-19T13:26:09.308Z,80.11
2023-02-19T13:29:01.160Z,79.51
2023-02-19T13:31:53.714Z,78.88
2023-02-19T13:34:37.160Z,78.84
2023-02-19T13:37:06.433Z,77.89
2023-02-19T13:39:35.913Z,77.85
2023-02-19T13:42:04.891Z,77.35
2023-02-19T13:44:35.648Z,77.71
2023-02-19T13:47:06.401Z,77.53
2023-02-19T13:49:50.160Z,78.35
2023-02-19T13:52:40.653Z,78.51
2023-02-19T13:56:00.430Z,78.20
2023-02-19T13:59:21.165Z,78.90
2023-02-19T14:02:28.085Z,79.00
2023-02-19T14:05:01.251Z,78.95
2023-02-19T14:07:56.364Z,78.38
2023-02-19T14:11:02.485Z,77.94
2023-02-19T14:14:26.644Z,78.31
2023-02-19T14:17:05.802Z,78.81
2023-02-19T14:19:58.411Z,78.89
2023-02-19T14:23:17.248Z,78.82
2023-02-19T14:25:52.122Z,79.54
2023-02-19T14:28:35.636Z,79.60
2023-02-19T14:31:30.217Z,79.73
2023-02-19T14:34:03.384Z,80.38
2023-02-19T14:36:44.146Z,80.99
2023-02-19T14:39:18.321Z,80.65
2023-02-19T14:41:51.012Z,81.06
2023-02-19T14:44:25.073Z,79.94
2023-02-19T14:46:58.973Z,80.24
2023-02-19T14:49:32.990Z,80.71
2023-02-19T14:52:07.925Z,80.42
2023-02-19T14:54:43.949Z,81.12
2023-02-19T14:57:19.032Z,80.00
2023-02-19T14:59:56.159Z,79.84
2023-02-19T15:02:26.012Z,79.41
2023-02-19T15:04:55.153Z,79.37
2023-02-19T15:07:29.996Z,78.47
2023-02-19T15:10:04.926Z,78.50
2023-02-19T15:12:39.744Z,79.11
2023-02-19T15:15:09.503Z,78.99
2023-02-19T15:17:41.908Z,78.56
2023-02-19T15:20:16.471Z,79.29
2023-02-19T15:22:47.382Z,79.69
2023-02-19T15:25:19.488Z,79.73
2023-02-19T15:27:48.390Z,79.19
2023-02-19T15:30:23.986Z,79.46
2023-02-19T15:32:58.655Z,79.92
2023-02-19T15:35:28.980Z,80.31
2023-02-19T15:37:58.950Z,80.80
2023-02-19T15:40:32.480Z,80.39
2023-02-19T15:43:01.937Z,80.72
2023-02-19T15:45:37.707Z,80.39
2023-02-19T15:48:14.508Z,81.07
2023-02-19T15:50:48.532Z,80.75
2023-02-19T15:53:21.941Z,81.66
2023-02-19T15:56:00.651Z,79.19
2023-02-19T15:58:34.157Z,79.14
2023-02-19T16:01:04.852Z,79.95
2023-02-19T16:03:34.459Z,80.28
2023-02-19T16:06:11.675Z,79.37
2023-02-19T16:08:43.341Z,79.70
2023-02-19T16:11:28.921Z,79.32
2023-02-19T16:14:23.405Z,79.75
2023-02-19T16:16:56.286Z,79.96
2023-02-19T16:19:28.595Z,79.45
2023-02-19T16:21:57.897Z,79.32
2023-02-19T16:24:35.148Z,80.09
2023-02-19T16:27:07.818Z,80.70
2023-02-19T16:29:36.377Z,81.42
2023-02-19T16:32:08.953Z,80.55
2023-02-19T16:34:43.178Z,81.41
2023-02-19T16:37:35.227Z,80.76
2023-02-19T16:41:10.231Z,79.99
2023-02-19T16:43:44.369Z,79.51
2023-02-19T16:46:14.652Z,79.70
2023-02-19T16:48:43.169Z,80.08
2023-02-19T16:51:26.729Z,80.88
2023-02-19T16:53:55.497Z,81.03
2023-02-19T16:56:25.442Z,81.37
2023-02-19T16:58:53.880Z,81.02
2023-02-19T17:01:26.190Z,80.25
2023-02-19T17:04:02.275Z,80.96
2023-02-19T17:06:32.787Z,80.56
2023-02-19T17:09:01.434Z,80.58
2023-02-19T17:11:33.612Z,80.48
2023-02-19T17:14:02.237Z,80.78
2023-02-19T17:16:39.865Z,81.06
2023-02-19T17:19:13.517Z,81.68
2023-02-19T17:21:42.252Z,81.70
2023-02-19T17:24:10.834Z,81.34
2023-02-19T17:26:40.910Z,80.94
2023-02-19T17:29:14.936Z,81.59
2023-02-19T17:31:43.499Z,81.17
2023-02-19T17:34:11.971Z,80.86
2023-02-19T17:36:40.979Z,80.93
2023-02-19T17:39:15.113Z,81.49
2023-02-19T17:41:45.020Z,81.98
2023-02-19T17:44:13.448Z,82.60
2023-02-19T17:46:42.080Z,82.24
2023-02-19T17:49:12.204Z,82.62
2023-02-19T17:51:40.714Z,82.61
2023-02-19T17:54:09.520Z,82.61
2023-02-19T17:56:40.022Z,82.74
2023-02-19T17:59:10.353Z,83.21
2023-02-19T18:01:38.831Z,82.74
2023-02-19T18:04:07.496Z,82.40
2023-02-19T18:06:36.031Z,81.80
2023-02-19T18:09:04.641Z,81.85
2023-02-19T18:11:33.005Z,82.79
2023-02-19T18:14:01.493Z,82.44
2023-02-19T18:16:31.327Z,82.57
2023-02-19T18:19:02.191Z,82.99
2023-02-19T18:21:30.615Z,82.67
2023-02-19T18:23:59.213Z,83.04
2023-02-19T18:26:27.708Z,83.43
2023-02-19T18:28:56.238Z,82.87
2023-02-19T18:31:24.870Z,83.18
2023-02-19T18:33:54.796Z,82.87
2023-02-19T18:36:23.283Z,82.35
2023-02-19T18:38:51.795Z,83.35
2023-02-19T18:41:21.180Z,83.11
2023-02-19T18:43:50.198Z,83.89
2023-02-19T18:46:22.266Z,84.21
2023-02-19T18:48:50.770Z,84.41
2023-02-19T18:51:23.518Z,83.57
2023-02-19T18:53:52.174Z,83.49
2023-02-19T18:56:20.651Z,83.72
2023-02-19T18:58:50.424Z,83.38
2023-02-19T19:01:19.154Z,83.59
2023-02-19T19:03:47.613Z,82.98
2023-02-19T19:06:16.059Z,83.28
2023-02-19T19:08:45.993Z,83.25
2023-02-19T19:11:14.756Z,83.79
2023-02-19T19:13:43.305Z,83.43
2023-02-19T19:16:11.992Z,83.84
2023-02-19T19:18:40.778Z,84.32
2023-02-19T19:21:09.875Z,84.64
2023-02-19T19:23:38.466Z,84.59
2023-02-19T19:26:11.071Z,84.44
2023-02-19T19:28:44.351Z,84.89
2023-02-19T19:31:13.932Z,84.99
2023-02-19T19:33:43.631Z,85.49
2023-02-19T19:36:12.666Z,85.35
2023-02-19T19:38:41.908Z,85.86
2023-02-19T19:41:15.162Z,85.43
2023-02-19T19:43:43.839Z,85.65
2023-02-19T19:46:16.594Z,85.73
2023-02-19T19:48:45.251Z,85.90
2023-02-19T19:51:14.431Z,85.48
2023-02-19T19:53:43.058Z,85.68
2023-02-19T19:56:13.099Z,85.06
2023-02-19T19:58:41.597Z,85.03
2023-02-19T20:01:10.763Z,84.86
2023-02-19T20:03:39.836Z,84.66
2023-02-19T20:06:09.141Z,84.57
2023-02-19T20:08:37.666Z,84.63
2023-02-19T20:11:06.541Z,84.35
2023-02-19T20:13:36.478Z,84.72
2023-02-19T20:16:06.175Z,84.72
2023-02-19T20:18:36.228Z,84.78
2023-02-19T20:21:04.887Z,85.38
2023-02-19T20:23:33.699Z,85.27
2023-02-19T20:26:02.191Z,85.33
2023-02-19T20:28:30.620Z,85.48
2023-02-19T20:31:00.645Z,85.88
2023-02-19T20:33:29.240Z,86.62
2023-02-19T20:35:57.878Z,86.72
2023-02-19T20:38:26.842Z,86.98
2023-02-19T20:40:56.474Z,86.93
2023-02-19T20:43:24.879Z,87.07
2023-02-19T20:45:53.352Z,86.87
2023-02-19T20:48:23.161Z,86.45
2023-02-19T20:50:51.602Z,86.54
2023-02-19T20:53:20.013Z,86.47
2023-02-19T20:55:48.490Z,86.11
2023-02-19T20:58:17.251Z,86.39
2023-02-19T21:00:46.430Z,86.45
2023-02-19T21:03:14.967Z,86.11
2023-02-19T21:05:44.796Z,85.77
2023-02-19T21:08:14.092Z,86.53
2023-02-19T21:10:42.464Z,87.04
2023-02-19T21:13:10.890Z,87.03
2023-02-19T21:15:39.385Z,87.14
2023-02-19T21:18:07.906Z,87.90
2023-02-19T21:20:36.315Z,88.25
2023-02-19T21:23:06.231Z,88.95
2023-02-19T21:25:34.732Z,88.84
2023-02-19T21:28:03.195Z,88.61
2023-02-19T21:30:31.729Z,89.01
2023-02-19T21:33:00.148Z,89.16
2023-02-19T21:35:29.281Z,89.09
2023-02-19T21:37:57.714Z,88.25
2023-02-19T21:40:29.061Z,88.04
2023-02-19T21:42:57.564Z,87.60
2023-02-19T21:45:26.183Z,88.04
2023-02-19T21:47:55.143Z,88.02
2023-02-19T21:50:23.982Z,87.89
2023-02-19T21:52:52.490Z,87.96
2023-02-19T21:55:21.140Z,88.04
2023-02-19T21:57:50.988Z,88.07
2023-02-19T22:00:20.448Z,88.15
2023-02-19T22:02:48.911Z,88.35
2023-02-19T22:05:17.903Z,87.94
2023-02-19T22:07:46.312Z,87.67
2023-02-19T22:10:16.678Z,87.67
2023-02-19T22:12:45.099Z,87.72
2023-02-19T22:15:15.260Z,87.85
2023-02-19T22:17:43.797Z,88.06
2023-02-19T22:20:12.752Z,87.66
2023-02-19T22:22:42.284Z,87.66
2023-02-19T22:25:10.767Z,87.86
2023-02-19T22:27:39.288Z,87.73
2023-02-19T22:30:09.335Z,87.89
2023-02-19T22:32:39.442Z,88.63
2023-02-19T22:35:08.654Z,87.70
2023-02-19T22:37:37.026Z,87.94
2023-02-19T22:40:06.160Z,87.97
2023-02-19T22:42:36.018Z,87.37
2023-02-19T22:45:05.040Z,85.41
2023-02-19T22:47:33.565Z,84.30
2023-02-19T22:50:03.579Z,84.85
2023-02-19T22:52:32.077Z,83.65
2023-02-19T22:55:00.905Z,83.15
2023-02-19T22:57:29.323Z,83.06
2023-02-19T22:59:57.720Z,82.42
2023-02-19T23:02:26.099Z,81.02
2023-02-19T23:04:54.509Z,81.29
2023-02-19T23:07:24.326Z,80.75
2023-02-19T23:09:52.889Z,80.81
2023-02-19T23:12:21.289Z,80.89
2023-02-19T23:14:49.732Z,80.92
2023-02-19T23:17:18.075Z,80.60
2023-02-19T23:19:46.473Z,79.79
2023-02-19T23:22:15.248Z,79.93
2023-02-19T23:24:45.110Z,80.11
2023-02-19T23:27:16.342Z,80.73
2023-02-19T23:29:44.874Z,80.53
2023-02-19T23:32:13.675Z,80.55
2023-02-19T23:34:42.260Z,80.69
2023-02-19T23:37:10.710Z,80.63
2023-02-19T23:39:39.212Z,80.95
2023-02-19T23:42:09.000Z,81.64
2023-02-19T23:44:37.379Z,81.99
2023-02-19T23:47:05.868Z,81.41
2023-02-19T23:49:34.398Z,81.51
2023-02-19T23:52:02.771Z,81.59
2023-02-19T23:54:31.346Z,82.15
2023-02-19T23:56:59.730Z,82.49
2023-02-19T23:59:29.487Z,82.59
